Aeroporto :
LOGIN :

Iscrizione | Disclaimer

   EN    FR    IT 

 










Sommario :    VFR   VFR Marginale   IFR   IFR Intensivo   IFR Molto Intensivo
Visibilità : 
Base nubi : 
>= 8 km
>= 3000ft
5 / 8 km
1000 / 3000 ft
1500m / 5 km
500 / 1000 ft
800 / 1500m
200 / 500 ft
< 800m
< 200 ft
Simboli :   Temporali  Nebbia  Neve Forte  Precipitazioni Forti  Vento > 20 kt
SIGMETs :   Varie  Temporali  Ghiacco  Turbolenza  Onda orograficha  Ceneri Vulcaniche






- Altitudine del aeroporto : 604 ft
- Codice IATA : LCJ


EPLL - Lodz

ULTIMO METAR :
  • 240900Z 28008KT 260V320 9999 BKN011 13/10 Q1013

METARs OBSOLETI :
  • 240830Z 28009KT 9999 BKN010 13/10 Q1013
  • 240800Z 29007KT 260V320 9999 BKN010 13/11 Q1013
  • 240730Z 29007KT 260V330 9999 FEW009 BKN013 13/11 Q1012
  • 240700Z 28008KT 9999 FEW008 BKN011 12/11 Q1012

TAF AMD TAF EPLL
Valido dal 24 a 09 ore il 25 a 06 ore UTC


240907Z 2409/2506 28010KT 9999 BKN025
TEMPO 2409/2411 BKN009 BKN013
BECMG 2415/2418 19005KT
TEMPO 2421/2506 3000 BR
PROB40 2500/2506 0300 FG BKN002



MetMap, La meteo Aeronautica in un colpo d'occhio ! - Copyright ORBIFLY Dicembre 2007 - Disclaimer

ORBIFLY MET'MAP TEAM :

Programmazione e sviluppo : Alexandra Zaïnal
Concezione : Baudouin d'Aumeries
Aiuto per la programmazione : Marc-Olivier Méhu
Supporto tecnico e logistico : Manuel Goepfert
Aiuto per la traduzione : Arnaldo La Scala

Contatto : metmap@orbifly.com




FONTI E CREDITI :

   NOAA